logo dgac
Miércoles 19 de Junio del 2019
Buscar por aerodromo o helipuerto
Ingrese nombre de aeródromo, localidad o designador OACI:
METAR del 19-06-2019 a las 07:00 UTC
METAR SCFA 190700Z 01007KT 7000 FEW007 11/09 Q1011 NOSIG
Viento: dirección 010 grados, velocidad 7 nudos
Visibilidad: 7000 metros
Nubes: Escasa nubosidad a 700 pies sobre el nivel del aeródromo
Temperatura: 11 °C
Rocío: 9 °C
Humedad_relativa: 87%
Presión: 1011 hPa
No se esperan cambios significativos en las próximas 2 horas
METAR del 19-06-2019 a las 06:00 UTC
METAR SCFA 190600Z 01009KT CAVOK 10/08 Q1012 NOSIG
Viento: dirección 010 grados, velocidad 9 nudos
Visibilidad: 10 km o más,
    sin nubes bajo los 5.000 pies o bajo del MSA (Mínimo de Seguridad del Aeródromo),
    sin cumulonimbus, y sin fenómenos de tiempo significativo en el aeródromo o alrededores
Temperatura: 10 °C
Rocío: 8 °C
Humedad_relativa: 87%
Presión: 1012 hPa
No se esperan cambios significativos en las próximas 2 horas
METAR del 19-06-2019 a las 05:00 UTC
METAR SCFA 190500Z 36005KT 9999 FEW003 09/08 Q1012 NOSIG
Viento: dirección 360 grados, velocidad 5 nudos
Visibilidad: 10 km o más
Nubes: Escasa nubosidad a 300 pies sobre el nivel del aeródromo
Temperatura: 9 °C
Rocío: 8 °C
Humedad_relativa: 93%
Presión: 1012 hPa
No se esperan cambios significativos en las próximas 2 horas
METAR del 19-06-2019 a las 04:00 UTC
METAR SCFA 190400Z 01008KT 0500 FG FEW002 BKN006 BKN010 11/09 Q1012 NOSIG
Viento: dirección 010 grados, velocidad 8 nudos
Visibilidad: 500 metros
Niebla
Nubes: Escasa nubosidad a 200 pies sobre el nivel del aeródromo
Nubes: Nublado a 600 pies sobre el nivel del aeródromo
Nubes: Nublado a 1000 pies sobre el nivel del aeródromo
Temperatura: 11 °C
Rocío: 9 °C
Humedad_relativa: 87%
Presión: 1012 hPa
No se esperan cambios significativos en las próximas 2 horas
SPECI del 19-06-2019 a las 03:30 UTC
SPECI SCFA 190330Z 01009KT 9999 BKN006 11/08 Q1012 NOSIG
Viento: dirección 010 grados, velocidad 9 nudos
Visibilidad: 10 km o más
Nubes: Nublado a 600 pies sobre el nivel del aeródromo
Temperatura: 11 °C
Rocío: 8 °C
Humedad_relativa: 82%
Presión: 1012 hPa
No se esperan cambios significativos en las próximas 2 horas
METAR del 19-06-2019 a las 03:00 UTC
METAR SCFA 190300Z 01003KT CAVOK 11/09 Q1011 NOSIG
Viento: dirección 010 grados, velocidad 3 nudos
Visibilidad: 10 km o más,
    sin nubes bajo los 5.000 pies o bajo del MSA (Mínimo de Seguridad del Aeródromo),
    sin cumulonimbus, y sin fenómenos de tiempo significativo en el aeródromo o alrededores
Temperatura: 11 °C
Rocío: 9 °C
Humedad_relativa: 87%
Presión: 1011 hPa
No se esperan cambios significativos en las próximas 2 horas
METAR del 19-06-2019 a las 02:00 UTC
METAR SCFA 190200Z 20005KT CAVOK 12/09 Q1012 NOSIG
Viento: dirección 200 grados, velocidad 5 nudos
Visibilidad: 10 km o más,
    sin nubes bajo los 5.000 pies o bajo del MSA (Mínimo de Seguridad del Aeródromo),
    sin cumulonimbus, y sin fenómenos de tiempo significativo en el aeródromo o alrededores
Temperatura: 12 °C
Rocío: 9 °C
Humedad_relativa: 82%
Presión: 1012 hPa
No se esperan cambios significativos en las próximas 2 horas
METAR del 19-06-2019 a las 02:00 UTC
METAR SCFA 190200Z 20005KT CAVOK 12/09 Q1012 NOSIG
Viento: dirección 200 grados, velocidad 5 nudos
Visibilidad: 10 km o más,
    sin nubes bajo los 5.000 pies o bajo del MSA (Mínimo de Seguridad del Aeródromo),
    sin cumulonimbus, y sin fenómenos de tiempo significativo en el aeródromo o alrededores
Temperatura: 12 °C
Rocío: 9 °C
Humedad_relativa: 82%
Presión: 1012 hPa
No se esperan cambios significativos en las próximas 2 horas
METAR del 19-06-2019 a las 01:00 UTC
METAR SCFA 190100Z 28002KT CAVOK 13/10 Q1012 NOSIG
Viento: dirección 280 grados, velocidad 2 nudos
Visibilidad: 10 km o más,
    sin nubes bajo los 5.000 pies o bajo del MSA (Mínimo de Seguridad del Aeródromo),
    sin cumulonimbus, y sin fenómenos de tiempo significativo en el aeródromo o alrededores
Temperatura: 13 °C
Rocío: 10 °C
Humedad_relativa: 82%
Presión: 1012 hPa
No se esperan cambios significativos en las próximas 2 horas
METAR del 19-06-2019 a las 00:00 UTC
METAR SCFA 190000Z 15003KT CAVOK 12/09 Q1012 NOSIG
Viento: dirección 150 grados, velocidad 3 nudos
Visibilidad: 10 km o más,
    sin nubes bajo los 5.000 pies o bajo del MSA (Mínimo de Seguridad del Aeródromo),
    sin cumulonimbus, y sin fenómenos de tiempo significativo en el aeródromo o alrededores
Temperatura: 12 °C
Rocío: 9 °C
Humedad_relativa: 82%
Presión: 1012 hPa
No se esperan cambios significativos en las próximas 2 horas